Data for 03/14/2017

Time Sea-Level Adjusted Pressure Absolute Pressure Temperature Relative Humidity Dew Point   
(mb) (inHg) (mb) (inHg) (C) (F) (%) (C) (F)
00:05 1018 30.06 848 25.04 7.5 45.5 44 -3.9 25
00:10 1018 30.06 848 25.04 7.8 46 43 -4 24.8
00:15 1018 30.06 848 25.04 8 46.3 42 -4.1 24.6
00:20 1018 30.06 848 25.04 8.1 46.5 42 -4.1 24.7
00:25 1018 30.06 848 25.04 8.2 46.7 42 -4 24.7
00:30 1018 30.06 848 25.04 8.1 46.6 43 -3.7 25.4
00:35 1018 30.06 848 25.04 7.9 46.1 43 -3.9 24.9
00:40 1018 30.06 848 25.04 7.9 46.2 42 -4.3 24.2
00:45 1018 30.06 848 25.04 8.1 46.5 41 -4.4 24.1
00:50 1018 30.06 848 25.04 8.1 46.5 42 -4.1 24.6
00:55 1018 30.06 848 25.04 8 46.4 42 -4.2 24.5
01:00 1018 30.06 848 25.04 8 46.3 42 -4.1 24.7
01:05 1019 30.09 848 25.04 7.9 46.2 44 -3.7 25.4
01:10 1019 30.09 848 25.04 7.6 45.7 44 -3.9 25
01:15 1019 30.09 848 25.04 7.5 45.6 45 -3.6 25.6
01:20 1019 30.09 848 25.04 7.2 45 45 -3.8 25.2
01:25 1019 30.09 848 25.04 7.2 45 46 -3.7 25.3
01:30 1019 30.09 848 25.04 7.1 44.8 47 -3.4 25.9
01:35 1019 30.09 848 25.04 7 44.7 47 -3.6 25.5
01:40 1019 30.09 848 25.04 7 44.7 47 -3.6 25.6
01:45 1019 30.09 848 25.04 7.1 44.7 47 -3.4 25.8
01:50 1019 30.09 848 25.04 6.8 44.2 49 -3.2 26.3
01:55 1019 30.09 848 25.04 6.5 43.7 49 -3.4 25.8
02:00 1019 30.09 848 25.04 6.7 44 48 -3.5 25.7
02:05 1019 30.09 848 25.04 6.8 44.3 47 -3.8 25.1
02:10 1019 30.09 848 25.04 6.9 44.5 46 -3.9 25
02:15 1019 30.09 848 25.04 7 44.7 45 -4.2 24.4
02:20 1019 30.09 848 25.04 7.2 45 46 -3.7 25.3
02:25 1019 30.09 848 25.04 7.2 44.9 45 -3.9 24.9
02:30 1019 30.09 848 25.04 7.2 45 45 -3.9 24.9
02:35 1019 30.09 848 25.04 7.1 44.7 46 -3.8 25.1
02:40 1019 30.09 848 25.04 7 44.6 46 -3.8 25.2
02:45 1019 30.09 848 25.04 7 44.6 45 -4 24.9
02:50 1019 30.09 848 25.04 7.1 44.8 45 -3.9 25
02:55 1019 30.09 848 25.04 7.1 44.8 45 -3.9 25
03:00 1019 30.09 848 25.04 7.1 44.8 45 -4 24.7
03:05 1019 30.09 848 25.04 7.1 44.9 46 -3.7 25.4
03:10 1019 30.09 848 25.04 6.9 44.5 46 -4 24.8
03:15 1019 30.09 848 25.04 7.1 44.7 45 -4 24.8
03:20 1019 30.09 848 25.04 6.9 44.5 46 -3.8 25.2
03:25 1019 30.09 848 25.04 6.9 44.3 46 -4 24.8
03:30 1019 30.09 848 25.04 7 44.6 45 -4 24.8
03:35 1019 30.09 848 25.04 7.2 44.9 46 -3.7 25.4
03:40 1019 30.09 848 25.04 7 44.6 47 -3.5 25.7
03:45 1019 30.09 848 25.04 6.9 44.4 47 -3.7 25.3
03:50 1019 30.09 848 25.04 6.7 44.1 46 -4 24.8
03:55 1019 30.09 848 25.04 6.9 44.5 48 -3.3 26.1
04:00 1019 30.09 848 25.04 6.6 43.8 49 -3.5 25.8
04:05 1019 30.09 848 25.04 6.6 44 45 -4.3 24.2
04:10 1019 30.09 848 25.04 7.1 44.7 47 -3.5 25.7
04:15 1019 30.09 848 25.04 6.9 44.4 46 -3.8 25.1
04:20 1019 30.09 848 25.04 7.2 45 46 -3.7 25.3
04:25 1019 30.09 848 25.04 7.4 45.2 46 -3.5 25.8
04:30 1019 30.09 848 25.04 7.3 45.2 46 -3.4 25.9
04:35 1019 30.09 848 25.04 7.3 45.1 48 -3 26.7
04:40 1019 30.09 848 25.04 6.7 44 49 -3.2 26.3
04:45 1019 30.09 848 25.04 6.5 43.7 48 -3.8 25.2
04:50 1019 30.09 848 25.04 6.8 44.3 47 -3.7 25.4
04:55 1019 30.09 848 25.04 7 44.5 47 -3.5 25.7
05:00 1019 30.09 849 25.07 6.7 44 50 -3.1 26.4
05:05 1019 30.09 849 25.07 6.5 43.7 47 -3.9 24.9
05:10 1019 30.09 849 25.07 6.9 44.4 48 -3.5 25.8
05:15 1020 30.12 849 25.07 6.9 44.4 45 -4.3 24.3
05:20 1020 30.12 849 25.07 7.1 44.7 46 -3.7 25.4
05:25 1020 30.12 849 25.07 6.9 44.5 49 -3 26.6
05:30 1020 30.12 849 25.07 6.8 44.2 51 -2.8 27
05:35 1020 30.12 849 25.07 6.7 44 52 -2.4 27.7
05:40 1020 30.12 849 25.07 6.6 43.8 53 -2.3 27.9
05:45 1020 30.12 849 25.07 6.3 43.4 55 -1.9 28.5
05:50 1020 30.12 849 25.07 6 42.8 55 -2.2 28
05:55 1020 30.12 849 25.07 6.1 43.1 56 -2 28.5
06:00 1020 30.12 849 25.07 6.2 43.2 56 -1.9 28.6
06:05 1020 30.12 849 25.07 6.2 43.1 56 -2 28.4
06:10 1020 30.12 849 25.07 6.4 43.5 60 -0.8 30.6
06:15 1020 30.12 849 25.07 5.8 42.4 62 -0.9 30.4
06:20 1020 30.12 849 25.07 5.6 42.1 62 -1 30.2
06:25 1020 30.12 849 25.07 5.6 42.1 64 -0.6 30.9
06:30 1020 30.12 849 25.07 5.4 41.7 63 -1 30.1
06:35 1020 30.12 849 25.07 5.5 41.9 66 -0.3 31.4
06:40 1020 30.12 849 25.07 5.5 41.9 66 -0.4 31.3
06:45 1020 30.12 849 25.07 5.4 41.8 68 0 32
06:50 1020 30.12 849 25.07 5.5 42 68 0 32
06:55 1020 30.12 849 25.07 5.7 42.2 70 0.6 33.1
07:00 1020 30.12 849 25.07 5.7 42.2 70 0.7 33.2
07:05 1020 30.12 849 25.07 5.7 42.3 71 0.8 33.5
07:10 1020 30.12 849 25.07 5.5 41.8 70 0.5 32.8
07:15 1020 30.12 849 25.07 5.4 41.8 70 0.4 32.6
07:20 1020 30.12 849 25.07 5.3 41.5 73 0.8 33.4
07:25 1020 30.12 849 25.07 5 41.1 75 1 33.8
07:30 1020 30.12 849 25.07 4.9 40.8 76 1 33.9
07:35 1020 30.12 849 25.07 4.9 40.7 77 1.1 34
07:40 1020 30.12 849 25.07 4.8 40.7 77 1.1 34
07:45 1020 30.12 849 25.07 4.8 40.7 77 1.2 34.2
07:50 1020 30.12 849 25.07 4.6 40.3 78 1 33.9
07:55 1020 30.12 849 25.07 4.6 40.3 77 1 33.8
08:00 1020 30.12 849 25.07 4.7 40.5 77 1 33.8
08:05 1020 30.12 849 25.07 4.8 40.6 76 0.9 33.7
08:10 1020 30.12 849 25.07 4.9 40.8 77 1.3 34.3
08:15 1020 30.12 849 25.07 4.8 40.6 79 1.4 34.5
08:20 1020 30.12 849 25.07 4.6 40.2 81 1.6 34.9
08:25 1020 30.12 849 25.07 4.4 39.8 82 1.5 34.8
08:30 1020 30.12 849 25.07 4.4 39.9 82 1.6 34.9
08:35 1020 30.12 849 25.07 4.4 40 82 1.6 34.8
08:40 1020 30.12 849 25.07 4.6 40.3 82 1.8 35.2
08:45 1020 30.12 849 25.07 4.5 40.2 82 1.7 35.1
08:50 1020 30.12 849 25.07 4.7 40.4 81 1.7 35.1
08:55 1020 30.12 849 25.07 4.8 40.7 80 1.7 35.1
09:00 1020 30.12 849 25.07 4.9 40.8 81 1.9 35.4
09:05 1020 30.12 849 25.07 5 41 81 1.9 35.5
09:10 1020 30.12 849 25.07 5.1 41.1 81 2 35.7
09:15 1020 30.12 849 25.07 5.1 41.2 81 2.1 35.8
09:20 1020 30.12 849 25.07 5.1 41.2 81 2.1 35.9
09:25 1020 30.12 850 25.1 5.2 41.4 80 2.1 35.8
09:30 1020 30.12 850 25.1 5.4 41.7 80 2.3 36.1
09:35 1020 30.12 850 25.1 5.5 41.8 79 2.1 35.8
09:40 1020 30.12 850 25.1 5.5 42 80 2.3 36.2
09:45 1020 30.12 850 25.1 5.6 42 81 2.6 36.6
09:50 1020 30.12 850 25.1 5.7 42.3 81 2.7 36.8
09:55 1020 30.12 850 25.1 5.8 42.5 82 3 37.4
10:00 1020 30.12 850 25.1 6 42.8 80 2.9 37.2
10:05 1020 30.12 850 25.1 6.2 43.1 80 3 37.3
10:10 1020 30.12 850 25.1 6.5 43.6 79 3.1 37.6
10:15 1020 30.12 850 25.1 6.7 44.1 79 3.3 37.9
10:20 1021 30.15 850 25.1 7.1 44.7 77 3.3 38
10:25 1021 30.15 850 25.1 7.2 45 75 3.2 37.7
10:30 1021 30.15 850 25.1 7.5 45.4 77 3.6 38.5
10:35 1021 30.15 850 25.1 7.7 45.9 73 3.3 37.9
10:40 1020 30.12 850 25.1 7.8 46 72 3 37.4
10:45 1020 30.12 850 25.1 8 46.4 70 2.9 37.3
10:50 1020 30.12 850 25.1 8.3 46.9 72 3.6 38.5
10:55 1020 30.12 850 25.1 8.4 47.1 68 2.8 37.1
11:00 1021 30.15 850 25.1 8.8 47.8 64 2.4 36.3
11:05 1021 30.15 850 25.1 8.9 48.1 62 2.2 35.9
11:10 1020 30.12 850 25.1 9.2 48.5 62 2.3 36.2
11:15 1020 30.12 850 25.1 9.5 49.1 58 1.7 35.1
11:20 1020 30.12 849 25.07 9.4 48.9 61 2.2 36
11:25 1020 30.12 849 25.07 9.5 49.1 58 1.7 35
11:30 1020 30.12 849 25.07 9.2 48.6 62 2.3 36.2
11:35 1020 30.12 849 25.07 9.1 48.4 61 2 35.5
11:40 1020 30.12 850 25.1 9 48.3 61 2 35.7
11:45 1020 30.12 850 25.1 9.2 48.5 62 2.3 36.1
11:50 1020 30.12 850 25.1 9.2 48.6 60 2 35.6
11:55 1021 30.15 850 25.1 9.3 48.8 60 2 35.6
12:00 1021 30.15 850 25.1 9.3 48.8 61 2.3 36.1
12:05 1021 30.15 850 25.1 9.3 48.8 62 2.5 36.5
12:10 1021 30.15 850 25.1 9.3 48.7 63 2.7 36.8
12:15 1021 30.15 850 25.1 9.2 48.5 63 2.5 36.5
12:20 1021 30.15 850 25.1 9.2 48.5 63 2.6 36.7
12:25 1020 30.12 850 25.1 9.2 48.6 64 2.8 37
12:30 1020 30.12 850 25.1 9.3 48.7 62 2.4 36.3
12:35 1020 30.12 850 25.1 9.6 49.2 60 2.2 36
12:40 1020 30.12 850 25.1 9.7 49.4 59 2 35.7
12:45 1020 30.12 850 25.1 9.8 49.7 58 2.1 35.7
12:50 1020 30.12 850 25.1 10.1 50.1 58 2.1 35.8
12:55 1020 30.12 849 25.07 10.2 50.4 58 2.3 36.1
13:00 1020 30.12 849 25.07 10.2 50.4 58 2.5 36.4
13:05 1020 30.12 849 25.07 10.5 50.9 57 2.5 36.4
13:10 1020 30.12 849 25.07 10.7 51.3 55 2.2 35.9
13:15 1020 30.12 849 25.07 10.9 51.5 55 2.3 36.2
13:20 1020 30.12 849 25.07 11 51.9 54 2.1 35.8
13:25 1020 30.12 849 25.07 11.1 51.9 55 2.4 36.4
13:30 1020 30.12 849 25.07 11.2 52.2 55 2.6 36.7
13:35 1020 30.12 849 25.07 11.2 52.2 53 2.2 35.9
13:40 1020 30.12 849 25.07 11.8 53.2 52 2.2 36
13:45 1020 30.12 849 25.07 12.3 54.1 51 2.4 36.4
13:50 1020 30.12 849 25.07 12.7 54.8 49 2.4 36.3
13:55 1020 30.12 849 25.07 13.7 56.6 45 2.2 35.9
14:00 1020 30.12 849 25.07 15.3 59.5 41 2.3 36.1
14:05 1020 30.12 849 25.07 15.3 59.6 42 2.7 36.9
14:10 1020 30.12 849 25.07 14.8 58.7 44 2.7 36.8
14:15 1019 30.09 848 25.04 14.8 58.7 43 2.4 36.4
14:20 1019 30.09 848 25.04 14.9 58.8 42 2.2 36
14:25 1019 30.09 848 25.04 14.8 58.6 43 2.5 36.5
14:30 1019 30.09 848 25.04 14.7 58.4 43 2.4 36.3
14:35 1019 30.09 848 25.04 14.8 58.6 42 2.2 36
14:40 1019 30.09 848 25.04 14.7 58.5 43 2.3 36.2
14:45 1019 30.09 848 25.04 14.6 58.3 42 2.1 35.8
14:50 1019 30.09 848 25.04 14.9 58.8 42 2.3 36.2
14:55 1019 30.09 848 25.04 14.9 58.7 42 2.1 35.7
15:00 1019 30.09 848 25.04 15.5 59.8 40 1.9 35.4
15:05 1019 30.09 848 25.04 15.7 60.2 40 2.3 36.2
15:10 1019 30.09 848 25.04 15.9 60.6 38 1.6 34.9
15:15 1019 30.09 848 25.04 16 60.9 37 1.6 34.9
15:20 1019 30.09 848 25.04 16.3 61.4 36 1.3 34.4
15:25 1019 30.09 848 25.04 16.5 61.8 36 1.6 34.8
15:30 1019 30.09 848 25.04 16.5 61.7 35 1.1 34
15:35 1018 30.06 848 25.04 16.5 61.8 29 -1.4 29.5
15:40 1018 30.06 847 25.01 16.9 62.3 29 -1.3 29.7
15:45 1018 30.06 847 25.01 16.8 62.2 29 -1 30.2
15:50 1018 30.06 847 25.01 16.7 62.1 30 -0.7 30.7
15:55 1018 30.06 847 25.01 16.5 61.6 30 -1.1 30
16:00 1018 30.06 847 25.01 16.5 61.6 29 -1.4 29.4
16:05 1018 30.06 847 25.01 16.5 61.7 29 -1.5 29.2
16:10 1018 30.06 847 25.01 16.6 61.8 30 -1 30.2
16:15 1018 30.06 847 25.01 16.4 61.6 29 -1.7 28.9
16:20 1018 30.06 847 25.01 16.4 61.6 29 -1.7 28.9
16:25 1018 30.06 847 25.01 16.4 61.6 29 -1.3 29.6
16:30 1018 30.06 847 25.01 16.4 61.5 28 -2.1 28.3
16:35 1018 30.06 847 25.01 16.4 61.5 28 -2.2 28.1
16:40 1018 30.06 848 25.04 16.3 61.3 29 -1.9 28.6
16:45 1018 30.06 848 25.04 16.2 61.1 28 -2.3 27.8
16:50 1018 30.06 848 25.04 16.3 61.3 28 -2.2 28.1
16:55 1018 30.06 848 25.04 16.3 61.3 28 -2.1 28.3
17:00 1018 30.06 847 25.01 16.2 61.2 29 -2 28.5
17:05 1018 30.06 847 25.01 16.3 61.3 29 -1.9 28.5
17:10 1018 30.06 848 25.04 16.3 61.3 29 -1.5 29.3
17:15 1018 30.06 848 25.04 16.2 61.1 30 -1.3 29.7
17:20 1018 30.06 848 25.04 16 60.8 30 -1.3 29.6
17:25 1018 30.06 848 25.04 16 60.8 30 -1.4 29.4
17:30 1018 30.06 848 25.04 16.2 61.1 29 -1.7 29
17:35 1018 30.06 848 25.04 16.3 61.3 29 -1.8 28.7
17:40 1018 30.06 848 25.04 16.2 61.2 29 -1.6 29.2
17:45 1018 30.06 848 25.04 16.1 60.9 29 -1.8 28.8
17:50 1018 30.06 848 25.04 16 60.8 30 -1.6 29.1
17:55 1018 30.06 848 25.04 15.9 60.7 30 -1.5 29.2
18:00 1018 30.06 848 25.04 15.9 60.6 30 -1.5 29.3
18:05 1018 30.06 848 25.04 15.9 60.6 30 -1.7 28.9
18:10 1018 30.06 848 25.04 16 60.8 30 -1.7 29
18:15 1018 30.06 848 25.04 16.2 61.1 29 -1.6 29.2
18:20 1018 30.06 847 25.01 16.3 61.4 29 -1.8 28.8
18:25 1018 30.06 847 25.01 16.3 61.4 28 -2.2 28
18:30 1018 30.06 848 25.04 16.3 61.3 29 -1.9 28.6
18:35 1018 30.06 848 25.04 16.2 61.1 29 -1.8 28.7
18:40 1018 30.06 848 25.04 16 60.8 29 -1.7 29
18:45 1018 30.06 848 25.04 15.9 60.6 29 -1.9 28.6
18:50 1018 30.06 848 25.04 15.9 60.5 29 -1.9 28.6
18:55 1018 30.06 848 25.04 15.8 60.4 30 -1.7 29
19:00 1018 30.06 848 25.04 15.6 60.1 30 -1.7 29
19:05 1018 30.06 848 25.04 15.5 59.9 30 -1.9 28.5
19:10 1019 30.09 848 25.04 15.6 60 30 -1.8 28.8
19:15 1019 30.09 848 25.04 15.5 59.9 30 -2 28.4
19:20 1019 30.09 848 25.04 15.4 59.8 31 -1.7 29
19:25 1019 30.09 848 25.04 15.2 59.3 31 -1.6 29.1
19:30 1019 30.09 848 25.04 15.1 59.2 31 -1.9 28.6
19:35 1019 30.09 848 25.04 15 59.1 32 -1.6 29.2
19:40 1019 30.09 848 25.04 14.8 58.7 32 -1.5 29.2
19:45 1019 30.09 848 25.04 14.6 58.4 33 -1.5 29.3
19:50 1019 30.09 848 25.04 14.5 58.1 33 -1.5 29.3
19:55 1019 30.09 848 25.04 14.3 57.8 34 -1.4 29.4
20:00 1019 30.09 848 25.04 14.2 57.6 33 -1.6 29
20:05 1019 30.09 848 25.04 14.2 57.6 33 -1.7 28.9
20:10 1019 30.09 848 25.04 14.2 57.6 33 -1.6 29
20:15 1019 30.09 848 25.04 14.1 57.4 34 -1.6 29.1
20:20 1019 30.09 848 25.04 14 57.1 34 -1.5 29.4
20:25 1019 30.09 848 25.04 13.8 56.8 34 -1.8 28.8
20:30 1019 30.09 848 25.04 13.9 57 33 -2.1 28.3
20:35 1019 30.09 848 25.04 14.1 57.4 32 -2.1 28.2
20:40 1019 30.09 848 25.04 14.2 57.6 32 -2.3 27.9
20:45 1019 30.09 848 25.04 14.3 57.7 32 -2.2 28
20:50 1019 30.09 848 25.04 14.3 57.7 32 -2.2 28
20:55 1019 30.09 848 25.04 14.3 57.7 32 -2.1 28.1
21:00 1019 30.09 848 25.04 14.2 57.6 32 -2.1 28.2
21:05 1019 30.09 848 25.04 14.1 57.4 33 -1.8 28.7
21:10 1019 30.09 848 25.04 13.7 56.6 34 -1.9 28.5
21:15 1019 30.09 848 25.04 13.5 56.4 34 -2.1 28.2
21:20 1019 30.09 848 25.04 13.6 56.5 33 -2.5 27.6
21:25 1019 30.09 848 25.04 13.8 56.8 32 -2.5 27.6
21:30 1019 30.09 848 25.04 13.7 56.7 33 -2.2 28
21:35 1019 30.09 848 25.04 13.6 56.4 33 -2.5 27.4
21:40 1019 30.09 848 25.04 13.6 56.5 33 -2.3 27.8
21:45 1019 30.09 848 25.04 13.5 56.2 33 -2.4 27.7
21:50 1019 30.09 848 25.04 13.4 56 33 -2.5 27.5
21:55 1019 30.09 848 25.04 13.3 56 33 -2.6 27.3
22:00 1019 30.09 848 25.04 13.3 55.9 33 -2.6 27.3
22:05 1019 30.09 848 25.04 13.4 56.1 33 -2.7 27.2
22:10 1019 30.09 848 25.04 13.4 56.1 33 -2.6 27.3
22:15 1019 30.09 848 25.04 13.2 55.7 33 -2.6 27.4
22:20 1019 30.09 848 25.04 13.1 55.5 33 -2.8 27
22:25 1019 30.09 848 25.04 13 55.4 34 -2.6 27.3
22:30 1019 30.09 848 25.04 12.6 54.7 34 -2.8 27
22:35 1019 30.09 848 25.04 12.6 54.8 33 -3.3 26.1
22:40 1019 30.09 848 25.04 13 55.5 32 -3.2 26.2
22:45 1019 30.09 848 25.04 13.2 55.8 32 -3.2 26.3
22:50 1019 30.09 848 25.04 13.1 55.5 32 -3.1 26.4
22:55 1019 30.09 848 25.04 13 55.3 32 -3.4 25.9
23:00 1019 30.09 848 25.04 13 55.5 32 -3.2 26.2
23:05 1019 30.09 848 25.04 12.8 55 33 -3.1 26.5
23:10 1019 30.09 848 25.04 12.3 54.2 34 -3.2 26.3
23:15 1019 30.09 848 25.04 11.9 53.4 36 -2.5 27.5
23:20 1019 30.09 848 25.04 11.3 52.3 39 -2.2 28
23:25 1019 30.09 848 25.04 10.6 51.1 40 -2.5 27.5
23:30 1019 30.09 848 25.04 10.4 50.6 41 -2.4 27.8
23:35 1019 30.09 848 25.04 10.3 50.6 41 -2.4 27.7
23:40 1019 30.09 848 25.04 10.4 50.7 40 -2.6 27.4
23:45 1019 30.09 848 25.04 10.5 51 39 -2.9 26.8
23:50 1019 30.09 848 25.04 10.6 51.2 39 -2.9 26.8
23:55 1019 30.09 848 25.04 11 51.9 37 -3 26.6
24:00 1019 30.09 848 25.04 11.2 52.1 37 -2.8 26.9